createdAt,value
2018-05-26T00:01:01.060Z,37.22
2018-05-26T00:02:01.114Z,37.22
2018-05-26T00:03:54.120Z,37.51
2018-05-26T00:04:54.179Z,36.93
2018-05-26T00:06:47.171Z,37.22
2018-05-26T00:07:47.238Z,37.51
2018-05-26T00:09:40.242Z,37.32
2018-05-26T00:10:40.301Z,38.28
2018-05-26T00:12:33.305Z,38.37
2018-05-26T00:13:33.359Z,38.28
2018-05-26T00:15:26.366Z,37.60
2018-05-26T00:16:26.417Z,37.12
2018-05-26T00:18:19.413Z,37.22
2018-05-26T00:19:19.477Z,36.93
2018-05-26T00:21:12.484Z,37.02
2018-05-26T00:22:12.540Z,37.60
2018-05-26T00:24:05.542Z,35.20
2018-05-26T00:25:05.600Z,35.30
2018-05-26T00:26:58.596Z,37.41
2018-05-26T00:27:58.661Z,37.22
2018-05-26T00:29:51.662Z,37.22
2018-05-26T00:30:51.720Z,36.16
2018-05-26T00:32:44.716Z,36.93
2018-05-26T00:33:44.780Z,36.16
2018-05-26T00:35:37.782Z,36.25
2018-05-26T00:36:37.840Z,35.68
2018-05-26T00:38:30.834Z,35.49
2018-05-26T00:39:30.900Z,35.49
2018-05-26T00:41:23.901Z,35.87
2018-05-26T00:42:23.958Z,35.49
2018-05-26T00:44:16.961Z,33.56
2018-05-26T00:45:17.021Z,33.66
2018-05-26T00:47:10.022Z,34.51
2018-05-26T00:48:10.083Z,34.80
2018-05-26T00:50:03.085Z,33.36
2018-05-26T00:51:03.142Z,32.68
2018-05-26T00:52:56.152Z,34.12
2018-05-26T00:53:56.205Z,33.45
2018-05-26T00:55:49.207Z,33.54
2018-05-26T00:56:49.267Z,33.54
2018-05-26T00:58:42.261Z,33.16
2018-05-26T00:59:42.326Z,32.97
2018-05-26T01:01:35.327Z,32.78
2018-05-26T01:02:35.384Z,32.10
2018-05-26T01:04:28.387Z,32.01
2018-05-26T01:05:28.444Z,31.62
2018-05-26T01:07:21.444Z,31.70
2018-05-26T01:08:21.507Z,31.13
2018-05-26T01:10:14.510Z,30.17
2018-05-26T01:11:14.569Z,29.97
2018-05-26T01:13:07.564Z,31.13
2018-05-26T01:14:07.628Z,30.46
2018-05-26T01:16:00.630Z,29.79
2018-05-26T01:17:00.694Z,30.74
2018-05-26T01:18:53.717Z,30.17
2018-05-26T01:19:53.781Z,30.26
2018-05-26T01:21:46.781Z,29.88
2018-05-26T01:22:46.840Z,29.88
2018-05-26T01:24:39.840Z,29.02
2018-05-26T01:25:39.913Z,29.02
2018-05-26T01:27:32.893Z,28.63
2018-05-26T01:28:32.959Z,28.42
2018-05-26T01:30:25.959Z,28.33
2018-05-26T01:31:26.021Z,27.66
2018-05-26T01:33:19.010Z,27.94
2018-05-26T01:34:19.078Z,28.14
2018-05-26T01:36:12.077Z,27.76
2018-05-26T01:37:12.134Z,27.75
2018-05-26T01:39:05.127Z,27.84
2018-05-26T01:40:05.192Z,27.27
2018-05-26T01:41:58.193Z,27.17
2018-05-26T01:42:58.252Z,26.98
2018-05-26T01:44:51.255Z,26.89
2018-05-26T01:45:51.464Z,26.60
2018-05-26T01:47:44.302Z,26.31
2018-05-26T01:48:44.367Z,25.93
2018-05-26T01:50:37.366Z,26.50
2018-05-26T01:51:37.424Z,26.21
2018-05-26T01:53:30.418Z,26.79
2018-05-26T01:54:30.482Z,26.60
2018-05-26T01:56:23.483Z,26.50
2018-05-26T01:57:23.540Z,26.40
2018-05-26T01:59:16.536Z,26.60
2018-05-26T02:00:16.598Z,26.60
2018-05-26T02:02:09.598Z,26.79
2018-05-26T02:03:09.657Z,27.47
2018-05-26T02:05:02.656Z,27.27
2018-05-26T02:06:02.717Z,27.56
2018-05-26T02:07:55.711Z,27.75
2018-05-26T02:08:55.776Z,27.67
2018-05-26T02:10:48.775Z,28.23
2018-05-26T02:11:48.834Z,27.76
2018-05-26T02:13:41.825Z,27.95
2018-05-26T02:14:41.897Z,28.15
2018-05-26T02:16:35.401Z,28.25
2018-05-26T02:17:35.457Z,28.63
2018-05-26T02:19:28.451Z,28.34
2018-05-26T02:20:28.515Z,28.53
2018-05-26T02:22:21.515Z,28.34
2018-05-26T02:23:21.574Z,28.25
2018-05-26T02:25:14.573Z,28.25
2018-05-26T02:26:14.629Z,28.25
2018-05-26T02:28:07.622Z,28.15
2018-05-26T02:29:07.689Z,27.67
2018-05-26T02:31:00.698Z,27.58
2018-05-26T02:32:00.748Z,27.75
2018-05-26T02:33:53.735Z,27.58
2018-05-26T02:34:53.806Z,27.84
2018-05-26T02:36:46.803Z,27.27
2018-05-26T02:37:46.861Z,27.37
2018-05-26T02:39:39.861Z,27.09
2018-05-26T02:40:39.924Z,26.79
2018-05-26T02:42:32.925Z,26.89
2018-05-26T02:43:32.983Z,26.98
2018-05-26T02:45:25.983Z,26.60
2018-05-26T02:46:26.040Z,26.40
2018-05-26T02:48:19.043Z,26.60
2018-05-26T02:49:19.106Z,26.50
2018-05-26T02:51:12.108Z,26.12
2018-05-26T02:52:12.170Z,25.83
2018-05-26T02:54:05.160Z,25.83
2018-05-26T02:55:05.225Z,25.73
2018-05-26T02:56:58.224Z,25.05
2018-05-26T02:57:58.285Z,24.66
2018-05-26T02:59:51.277Z,24.57
2018-05-26T03:00:51.343Z,24.76
2018-05-26T03:02:44.342Z,24.76
2018-05-26T03:03:44.400Z,24.57
2018-05-26T03:05:37.406Z,24.48
2018-05-26T03:06:37.458Z,24.38
2018-05-26T03:08:30.451Z,23.90
2018-05-26T03:09:30.542Z,24.09
2018-05-26T03:11:23.514Z,23.71
2018-05-26T03:12:23.571Z,23.52
2018-05-26T03:14:16.567Z,23.52
2018-05-26T03:15:16.628Z,23.41
2018-05-26T03:17:10.139Z,23.52
2018-05-26T03:18:10.194Z,23.42
2018-05-26T03:20:03.197Z,23.50
2018-05-26T03:21:03.257Z,23.52
2018-05-26T03:22:56.257Z,23.50
2018-05-26T03:23:56.318Z,23.32
2018-05-26T03:25:49.322Z,23.21
2018-05-26T03:26:49.371Z,22.55
2018-05-26T03:28:42.366Z,22.35
2018-05-26T03:29:42.435Z,22.83
2018-05-26T03:31:35.428Z,22.64
2018-05-26T03:32:35.485Z,22.54
2018-05-26T03:34:28.478Z,22.35
2018-05-26T03:35:28.543Z,22.25
2018-05-26T03:37:21.541Z,22.54
2018-05-26T03:38:21.600Z,22.54
2018-05-26T03:40:14.600Z,22.35
2018-05-26T03:41:14.658Z,22.16
2018-05-26T03:43:07.659Z,22.74
2018-05-26T03:44:07.717Z,22.25
2018-05-26T03:46:00.714Z,22.06
2018-05-26T03:47:00.776Z,21.87
2018-05-26T03:48:53.764Z,21.58
2018-05-26T03:49:53.832Z,21.68
2018-05-26T03:51:46.828Z,21.58
2018-05-26T03:52:46.887Z,21.87
2018-05-26T03:54:39.880Z,21.78
2018-05-26T03:55:39.944Z,21.78
2018-05-26T03:57:33.445Z,21.68
2018-05-26T03:58:33.502Z,21.97
2018-05-26T04:00:26.494Z,22.16
2018-05-26T04:01:26.558Z,22.25
2018-05-26T04:03:19.567Z,22.65
2018-05-26T04:04:19.615Z,23.13
2018-05-26T04:06:12.617Z,23.22
2018-05-26T04:07:12.674Z,23.42
2018-05-26T04:09:05.669Z,23.52
2018-05-26T04:10:05.732Z,23.03
2018-05-26T04:11:58.732Z,23.13
2018-05-26T04:12:58.788Z,23.32
2018-05-26T04:14:51.789Z,22.84
2018-05-26T04:15:51.848Z,22.94
2018-05-26T04:17:44.847Z,22.84
2018-05-26T04:18:44.906Z,23.03
2018-05-26T04:20:37.913Z,22.94
2018-05-26T04:21:37.965Z,22.36
2018-05-26T04:23:30.968Z,22.27
2018-05-26T04:24:31.025Z,22.27
2018-05-26T04:26:24.030Z,22.36
2018-05-26T04:27:24.089Z,22.84
2018-05-26T04:29:17.082Z,23.22
2018-05-26T04:30:17.148Z,22.28
2018-05-26T04:32:10.146Z,22.85
2018-05-26T04:33:10.206Z,22.38
2018-05-26T04:35:03.206Z,23.33
2018-05-26T04:36:03.271Z,23.52
2018-05-26T04:37:56.270Z,23.72
2018-05-26T04:38:56.326Z,24.01
2018-05-26T04:40:49.318Z,24.01
2018-05-26T04:41:49.386Z,23.62
2018-05-26T04:43:42.381Z,24.10
2018-05-26T04:44:42.440Z,23.14
2018-05-26T04:46:35.440Z,23.52
2018-05-26T04:47:35.496Z,23.43
2018-05-26T04:49:28.490Z,24.29
2018-05-26T04:50:28.555Z,24.21
2018-05-26T04:52:21.554Z,23.54
2018-05-26T04:53:21.621Z,23.63
2018-05-26T04:55:14.613Z,23.54
2018-05-26T04:56:14.676Z,23.25
2018-05-26T04:58:07.677Z,24.60
2018-05-26T04:59:07.736Z,24.02
2018-05-26T05:01:00.730Z,24.40
2018-05-26T05:02:00.794Z,24.40
2018-05-26T05:03:53.812Z,23.83
2018-05-26T05:04:53.863Z,24.60
2018-05-26T05:06:46.861Z,24.51
2018-05-26T05:07:46.920Z,24.13
2018-05-26T05:09:39.914Z,24.03
2018-05-26T05:10:39.979Z,24.32
2018-05-26T05:12:32.985Z,25.28
2018-05-26T05:13:33.043Z,24.70
2018-05-26T05:15:26.036Z,23.93
2018-05-26T05:16:26.103Z,24.80
2018-05-26T05:18:19.101Z,24.90
2018-05-26T05:19:19.161Z,24.90
2018-05-26T05:21:12.153Z,25.38
2018-05-26T05:22:12.217Z,25.67
2018-05-26T05:24:05.221Z,25.57
2018-05-26T05:25:05.279Z,25.57
2018-05-26T05:26:58.280Z,25.85
2018-05-26T05:27:58.341Z,25.48
2018-05-26T05:29:51.329Z,25.78
2018-05-26T05:30:51.397Z,27.12
2018-05-26T05:32:44.395Z,25.87
2018-05-26T05:33:44.454Z,25.78
2018-05-26T05:35:37.447Z,26.83
2018-05-26T05:36:37.513Z,26.54
2018-05-26T05:38:30.513Z,27.12
2018-05-26T05:39:30.574Z,26.46
2018-05-26T05:41:23.568Z,27.50
2018-05-26T05:42:23.635Z,28.38
2018-05-26T05:44:16.650Z,27.61
2018-05-26T05:45:16.713Z,25.59
2018-05-26T05:47:09.711Z,28.48
2018-05-26T05:48:09.768Z,27.33
2018-05-26T05:50:02.832Z,26.76
2018-05-26T05:51:02.831Z,29.54
2018-05-26T05:52:55.832Z,29.27
2018-05-26T05:53:55.899Z,29.94
2018-05-26T05:55:48.888Z,29.17
2018-05-26T05:56:48.955Z,30.05
2018-05-26T05:58:41.959Z,32.75
2018-05-26T05:59:42.017Z,32.56
2018-05-26T06:01:35.014Z,30.45
2018-05-26T06:02:35.081Z,31.88
2018-05-26T06:04:28.082Z,35.17
2018-05-26T06:05:28.143Z,37.77
2018-05-26T06:07:21.149Z,34.40
2018-05-26T06:08:21.227Z,35.17
2018-05-26T06:10:14.202Z,38.28
2018-05-26T06:11:14.269Z,40.42
2018-05-26T06:13:07.273Z,48.76
2018-05-26T06:14:07.361Z,56.15
2018-05-26T06:16:00.334Z,71.34
2018-05-26T06:17:00.394Z,77.12
2018-05-26T06:18:53.396Z,81.02
2018-05-26T06:19:53.457Z,81.35
2018-05-26T06:21:46.454Z,80.17
2018-05-26T06:22:46.521Z,79.88
2018-05-26T06:24:39.526Z,78.20
2018-05-26T06:25:39.588Z,77.62
2018-05-26T06:27:32.831Z,77.56
2018-05-26T06:28:32.657Z,76.35
2018-05-26T06:30:25.660Z,76.84
2018-05-26T06:31:25.757Z,75.81
2018-05-26T06:33:18.741Z,69.04
2018-05-26T06:34:18.809Z,64.32
2018-05-26T06:36:11.821Z,58.89
2018-05-26T06:37:11.895Z,58.01
2018-05-26T06:39:04.903Z,56.40
2018-05-26T06:40:04.970Z,56.50
2018-05-26T06:41:57.980Z,55.69
2018-05-26T06:42:58.049Z,55.47
2018-05-26T06:44:51.066Z,60.58
2018-05-26T06:45:51.131Z,59.15
2018-05-26T06:47:44.149Z,57.23
2018-05-26T06:48:44.216Z,57.18
2018-05-26T06:50:37.225Z,54.91
2018-05-26T06:51:37.299Z,54.22
2018-05-26T06:53:30.322Z,54.47
2018-05-26T06:54:30.390Z,51.78
2018-05-26T06:56:23.404Z,50.59
2018-05-26T06:57:23.480Z,52.27
2018-05-26T06:59:16.504Z,51.42
2018-05-26T07:00:16.579Z,50.22
2018-05-26T07:02:09.588Z,50.71
2018-05-26T07:03:09.667Z,50.12
2018-05-26T07:05:02.711Z,48.09
2018-05-26T07:06:02.765Z,48.58
2018-05-26T07:07:55.784Z,48.21
2018-05-26T07:08:55.855Z,46.61
2018-05-26T07:10:48.874Z,45.61
2018-05-26T07:11:48.946Z,46.15
2018-05-26T07:13:41.968Z,45.70
2018-05-26T07:14:42.039Z,44.42
2018-05-26T07:16:35.063Z,43.33
2018-05-26T07:17:35.142Z,43.06
2018-05-26T07:19:28.167Z,43.69
2018-05-26T07:20:28.238Z,43.06
2018-05-26T07:22:21.264Z,42.96
2018-05-26T07:23:21.336Z,44.23
2018-05-26T07:25:14.362Z,43.75
2018-05-26T07:26:14.431Z,43.03
2018-05-26T07:28:07.457Z,39.32
2018-05-26T07:29:07.561Z,39.03
2018-05-26T07:31:00.560Z,41.11
2018-05-26T07:32:00.632Z,42.75
2018-05-26T07:33:53.682Z,42.63
2018-05-26T07:34:53.733Z,43.66
2018-05-26T07:36:46.756Z,42.43
2018-05-26T07:37:46.836Z,43.04
2018-05-26T07:39:39.868Z,43.14
2018-05-26T07:40:39.938Z,43.06
2018-05-26T07:42:32.973Z,41.90
2018-05-26T07:43:33.038Z,41.16
2018-05-26T07:45:26.065Z,41.04
2018-05-26T07:46:26.138Z,39.26
2018-05-26T07:48:19.180Z,40.74
2018-05-26T07:49:19.239Z,41.43
2018-05-26T07:51:12.260Z,39.94
2018-05-26T07:52:12.338Z,38.59
2018-05-26T07:54:05.370Z,37.74
2018-05-26T07:55:05.447Z,39.09
2018-05-26T07:56:58.470Z,38.95
2018-05-26T07:57:58.555Z,37.55
2018-05-26T07:59:51.579Z,38.14
2018-05-26T08:00:51.652Z,37.15
2018-05-26T08:02:44.680Z,39.09
2018-05-26T08:03:44.762Z,38.85
2018-05-26T08:05:37.789Z,39.13
2018-05-26T08:06:37.869Z,38.85
2018-05-26T08:08:30.896Z,39.15
2018-05-26T08:09:30.973Z,39.17
2018-05-26T08:11:23.997Z,37.81
2018-05-26T08:12:24.079Z,37.85
2018-05-26T08:14:17.111Z,36.96
2018-05-26T08:15:17.185Z,36.98
2018-05-26T08:17:10.229Z,36.40
2018-05-26T08:18:10.293Z,35.83
2018-05-26T08:20:03.326Z,35.99
2018-05-26T08:21:03.401Z,36.11
2018-05-26T08:22:56.430Z,36.30
2018-05-26T08:23:56.510Z,36.21
2018-05-26T08:25:49.543Z,35.38
2018-05-26T08:26:49.619Z,37.05
2018-05-26T08:28:42.652Z,36.05
2018-05-26T08:29:42.730Z,36.07
2018-05-26T08:31:35.757Z,34.89
2018-05-26T08:32:35.837Z,35.74
2018-05-26T08:34:28.872Z,36.61
2018-05-26T08:35:28.949Z,36.49
2018-05-26T08:37:21.973Z,37.22
2018-05-26T08:38:22.060Z,36.07
2018-05-26T08:40:15.091Z,34.63
2018-05-26T08:41:15.210Z,34.79
2018-05-26T08:43:08.200Z,34.13
2018-05-26T08:44:08.286Z,35.04
2018-05-26T08:46:01.319Z,34.05
2018-05-26T08:47:01.399Z,33.87
2018-05-26T08:48:54.463Z,33.85
2018-05-26T08:49:54.503Z,32.92
2018-05-26T08:51:47.536Z,35.05
2018-05-26T08:52:47.617Z,34.46
2018-05-26T08:54:40.651Z,35.99
2018-05-26T08:55:40.729Z,35.80
2018-05-26T08:57:33.760Z,35.99
2018-05-26T08:58:33.842Z,35.97
2018-05-26T09:00:26.883Z,35.93
2018-05-26T09:01:26.958Z,35.44
2018-05-26T09:03:19.992Z,34.87
2018-05-26T09:04:20.074Z,34.97
2018-05-26T09:06:13.106Z,36.36
2018-05-26T09:07:13.183Z,35.38
2018-05-26T09:09:06.222Z,33.84
2018-05-26T09:10:06.297Z,33.77
2018-05-26T09:11:59.326Z,34.01
2018-05-26T09:12:59.405Z,34.87
2018-05-26T09:14:52.447Z,34.89
2018-05-26T09:15:52.513Z,34.13
2018-05-26T09:17:45.542Z,34.08
2018-05-26T09:18:45.712Z,34.27
2018-05-26T09:20:38.656Z,33.86
2018-05-26T09:21:38.732Z,33.95
2018-05-26T09:23:31.761Z,33.98
2018-05-26T09:24:31.845Z,33.70
2018-05-26T09:26:24.882Z,33.36
2018-05-26T09:27:24.954Z,33.72
2018-05-26T09:29:18.016Z,38.13
2018-05-26T09:30:18.126Z,38.29
2018-05-26T09:32:11.596Z,40.60
2018-05-26T09:33:11.674Z,40.95
2018-05-26T09:35:04.706Z,42.29
2018-05-26T09:36:04.777Z,44.43
2018-05-26T09:37:57.798Z,43.75
2018-05-26T09:38:57.876Z,44.02
2018-05-26T09:40:50.900Z,43.04
2018-05-26T09:41:50.971Z,46.85
2018-05-26T09:43:44.033Z,45.12
2018-05-26T09:44:44.074Z,42.85
2018-05-26T09:46:37.088Z,42.83
2018-05-26T09:47:37.157Z,43.12
2018-05-26T09:49:30.181Z,45.26
2018-05-26T09:50:30.249Z,45.07
2018-05-26T09:52:23.289Z,43.80
2018-05-26T09:53:23.343Z,45.34
2018-05-26T09:55:16.418Z,42.71
2018-05-26T09:56:16.433Z,43.59
2018-05-26T09:58:09.447Z,43.99
2018-05-26T09:59:09.519Z,43.80
2018-05-26T10:01:02.539Z,42.51
2018-05-26T10:02:02.606Z,42.88
2018-05-26T10:03:55.618Z,43.57
2018-05-26T10:04:55.692Z,43.76
2018-05-26T10:06:48.718Z,45.34
2018-05-26T10:07:48.778Z,44.07
2018-05-26T10:09:41.799Z,44.27
2018-05-26T10:10:41.868Z,45.15
2018-05-26T10:12:34.881Z,45.17
2018-05-26T10:13:34.983Z,43.22
2018-05-26T10:15:27.972Z,45.15
2018-05-26T10:16:28.039Z,44.66
2018-05-26T10:18:21.050Z,43.76
2018-05-26T10:19:21.125Z,43.76
2018-05-26T10:21:14.139Z,45.32
2018-05-26T10:22:14.207Z,43.66
2018-05-26T10:24:07.230Z,44.62
2018-05-26T10:25:07.291Z,45.61
2018-05-26T10:27:00.308Z,43.35
2018-05-26T10:28:00.381Z,43.54
2018-05-26T10:29:53.400Z,42.45
2018-05-26T10:30:53.461Z,43.52
2018-05-26T10:32:46.994Z,44.98
2018-05-26T10:33:47.051Z,45.00
2018-05-26T10:35:40.088Z,45.12
2018-05-26T10:36:40.136Z,44.07
2018-05-26T10:38:33.150Z,45.15
2018-05-26T10:39:33.229Z,43.68
2018-05-26T10:41:26.258Z,43.37
2018-05-26T10:42:26.323Z,43.29
2018-05-26T10:44:19.333Z,41.81
2018-05-26T10:45:19.406Z,42.59
2018-05-26T10:47:12.426Z,41.99
2018-05-26T10:48:12.488Z,42.66
2018-05-26T10:50:05.561Z,42.86
2018-05-26T10:51:05.569Z,42.47
2018-05-26T10:52:58.581Z,43.18
2018-05-26T10:53:58.649Z,41.42
2018-05-26T10:55:51.673Z,41.32
2018-05-26T10:56:51.732Z,41.71
2018-05-26T10:58:44.741Z,41.05
2018-05-26T10:59:44.812Z,41.63
2018-05-26T11:01:37.853Z,40.13
2018-05-26T11:02:37.897Z,40.62
2018-05-26T11:04:30.939Z,41.03
2018-05-26T11:05:30.991Z,39.55
2018-05-26T11:07:24.007Z,41.52
2018-05-26T11:08:24.073Z,39.84
2018-05-26T11:10:17.093Z,41.60
2018-05-26T11:11:17.164Z,41.69
2018-05-26T11:13:10.171Z,38.65
2018-05-26T11:14:10.243Z,37.58
2018-05-26T11:16:03.261Z,38.07
2018-05-26T11:17:03.342Z,38.67
2018-05-26T11:18:56.353Z,39.34
2018-05-26T11:19:56.407Z,38.18
2018-05-26T11:21:49.424Z,38.57
2018-05-26T11:22:49.493Z,37.70
2018-05-26T11:24:42.582Z,37.70
2018-05-26T11:25:42.587Z,37.29
2018-05-26T11:27:35.587Z,38.07
2018-05-26T11:28:35.659Z,39.03
2018-05-26T11:30:28.739Z,39.34
2018-05-26T11:31:28.734Z,39.34
2018-05-26T11:33:21.742Z,37.77
2018-05-26T11:34:21.814Z,38.56
2018-05-26T11:36:14.828Z,37.39
2018-05-26T11:37:14.893Z,38.56
2018-05-26T11:39:07.901Z,39.34
2018-05-26T11:40:07.974Z,38.75
2018-05-26T11:42:00.986Z,37.31
2018-05-26T11:43:01.045Z,37.70
2018-05-26T11:44:54.055Z,38.96
2018-05-26T11:45:54.128Z,37.48
2018-05-26T11:47:47.650Z,38.48
2018-05-26T11:50:00.674Z,38.87
2018-05-26T11:51:00.744Z,39.06
2018-05-26T11:52:53.761Z,40.03
2018-05-26T11:53:53.822Z,38.96
2018-05-26T11:55:46.841Z,39.45
2018-05-26T11:56:46.911Z,38.87
2018-05-26T11:58:39.913Z,40.33
2018-05-26T11:59:39.988Z,40.25
2018-05-26T12:01:33.000Z,37.33
2018-05-26T12:02:33.062Z,37.73
2018-05-26T12:04:26.071Z,37.71
2018-05-26T12:05:26.140Z,37.71
2018-05-26T12:07:19.153Z,38.96
2018-05-26T12:08:19.219Z,40.03
2018-05-26T12:10:12.227Z,40.13
2018-05-26T12:11:12.340Z,40.93
2018-05-26T12:13:05.316Z,40.25
2018-05-26T12:14:05.373Z,40.16
2018-05-26T12:15:58.389Z,40.45
2018-05-26T12:16:58.455Z,39.86
2018-05-26T12:18:51.464Z,40.06
2018-05-26T12:19:51.539Z,40.25
2018-05-26T12:21:44.552Z,39.98
2018-05-26T12:22:44.613Z,38.51
2018-05-26T12:24:37.627Z,40.35
2018-05-26T12:25:37.695Z,40.16
2018-05-26T12:27:30.720Z,40.33
2018-05-26T12:28:30.784Z,40.03
2018-05-26T12:30:23.786Z,40.81
2018-05-26T12:31:23.858Z,39.45
2018-05-26T12:33:16.871Z,40.45
2018-05-26T12:34:16.937Z,39.37
2018-05-26T12:36:09.962Z,40.73
2018-05-26T12:37:10.020Z,38.79
2018-05-26T12:39:03.030Z,38.40
2018-05-26T12:40:03.111Z,38.01
2018-05-26T12:41:56.116Z,40.42
2018-05-26T12:42:56.181Z,40.55
2018-05-26T12:44:49.187Z,40.45
2018-05-26T12:45:49.259Z,38.89
2018-05-26T12:47:42.798Z,38.40
2018-05-26T12:48:42.848Z,38.59
2018-05-26T12:50:35.856Z,38.40
2018-05-26T12:51:35.924Z,38.09
2018-05-26T12:53:28.942Z,39.57
2018-05-26T12:54:29.009Z,38.20
2018-05-26T12:56:22.021Z,39.18
2018-05-26T12:57:22.085Z,39.67
2018-05-26T12:59:15.094Z,37.43
2018-05-26T13:00:15.164Z,38.49
2018-05-26T13:02:08.179Z,38.89
2018-05-26T13:03:08.245Z,39.57
2018-05-26T13:05:01.255Z,38.40
2018-05-26T13:06:01.330Z,38.98
2018-05-26T13:07:54.357Z,39.57
2018-05-26T13:08:54.420Z,37.50
2018-05-26T13:10:47.426Z,37.81
2018-05-26T13:11:47.496Z,37.33
2018-05-26T13:13:40.510Z,37.71
2018-05-26T13:14:40.576Z,37.33
2018-05-26T13:16:33.597Z,36.82
2018-05-26T13:17:33.663Z,37.04
2018-05-26T13:19:26.672Z,36.84
2018-05-26T13:20:26.741Z,35.77
2018-05-26T13:22:19.756Z,37.21
2018-05-26T13:23:19.821Z,35.65
2018-05-26T13:25:12.829Z,36.82
2018-05-26T13:26:12.901Z,37.13
2018-05-26T13:28:05.917Z,36.25
2018-05-26T13:29:05.981Z,37.43
2018-05-26T13:30:58.986Z,37.33
2018-05-26T13:31:59.057Z,37.04
2018-05-26T13:33:52.074Z,37.33
2018-05-26T13:34:52.140Z,37.23
2018-05-26T13:36:45.151Z,38.30
2018-05-26T13:37:45.237Z,38.79
2018-05-26T13:39:38.224Z,38.71
2018-05-26T13:40:38.296Z,38.81
2018-05-26T13:42:31.317Z,38.32
2018-05-26T13:43:31.380Z,37.54
2018-05-26T13:45:24.390Z,36.57
2018-05-26T13:46:24.460Z,37.75
2018-05-26T13:48:17.983Z,37.85
2018-05-26T13:49:18.088Z,37.17
2018-05-26T13:51:11.156Z,37.65
2018-05-26T13:52:11.131Z,37.17
2018-05-26T13:54:04.138Z,39.41
2018-05-26T13:55:04.201Z,40.48
2018-05-26T13:56:57.211Z,39.90
2018-05-26T13:57:57.280Z,40.27
2018-05-26T13:59:50.293Z,40.56
2018-05-26T14:00:50.357Z,40.76
2018-05-26T14:02:43.370Z,38.90
2018-05-26T14:03:43.439Z,39.10
2018-05-26T14:05:36.445Z,38.22
2018-05-26T14:06:36.517Z,37.71
2018-05-26T14:08:29.559Z,37.62
2018-05-26T14:09:29.619Z,36.94
2018-05-26T14:11:22.631Z,37.83
2018-05-26T14:12:22.701Z,38.89
2018-05-26T14:14:15.713Z,38.81
2018-05-26T14:15:15.780Z,39.37
2018-05-26T14:17:08.793Z,39.00
2018-05-26T14:18:08.871Z,39.49
2018-05-26T14:20:01.877Z,38.12
2018-05-26T14:21:01.945Z,36.86
2018-05-26T14:22:54.966Z,38.49
2018-05-26T14:23:55.018Z,39.57
2018-05-26T14:25:48.031Z,39.39
2018-05-26T14:26:48.102Z,38.51
2018-05-26T14:28:41.113Z,37.54
2018-05-26T14:29:41.179Z,36.66
2018-05-26T14:31:34.187Z,36.86
2018-05-26T14:32:34.262Z,36.57
2018-05-26T14:34:27.287Z,36.08
2018-05-26T14:35:27.368Z,36.84
2018-05-26T14:37:20.360Z,37.13
2018-05-26T14:38:20.428Z,36.55
2018-05-26T14:40:13.445Z,36.06
2018-05-26T14:41:13.508Z,36.84
2018-05-26T14:43:06.525Z,37.23
2018-05-26T14:44:06.591Z,36.55
2018-05-26T14:45:59.609Z,36.65
2018-05-26T14:46:59.672Z,37.13
2018-05-26T14:48:53.193Z,37.23
2018-05-26T14:49:53.318Z,36.84
2018-05-26T14:51:46.267Z,37.33
2018-05-26T14:52:46.336Z,36.74
2018-05-26T14:54:39.354Z,36.65
2018-05-26T14:55:39.418Z,37.04
2018-05-26T14:57:32.423Z,37.63
2018-05-26T14:58:32.496Z,37.23
2018-05-26T15:00:25.510Z,36.84
2018-05-26T15:01:25.576Z,37.23
2018-05-26T15:03:18.587Z,37.13
2018-05-26T15:04:18.655Z,38.49
2018-05-26T15:06:11.673Z,37.33
2018-05-26T15:07:11.732Z,36.08
2018-05-26T15:09:04.746Z,36.94
2018-05-26T15:10:04.830Z,36.45
2018-05-26T15:11:57.827Z,36.16
2018-05-26T15:12:57.971Z,35.77
2018-05-26T15:14:50.921Z,36.84
2018-05-26T15:15:50.990Z,37.04
2018-05-26T15:17:44.087Z,37.43
2018-05-26T15:18:44.150Z,37.62
2018-05-26T15:20:37.074Z,38.49
2018-05-26T15:21:37.142Z,38.40
2018-05-26T15:23:30.150Z,37.21
2018-05-26T15:24:30.208Z,37.23
2018-05-26T15:26:23.224Z,37.02
2018-05-26T15:27:23.295Z,36.72
2018-05-26T15:29:16.311Z,36.63
2018-05-26T15:30:16.370Z,37.79
2018-05-26T15:32:09.389Z,38.79
2018-05-26T15:33:09.455Z,38.40
2018-05-26T15:35:02.488Z,37.04
2018-05-26T15:36:02.557Z,37.33
2018-05-26T15:37:55.558Z,38.89
2018-05-26T15:38:55.624Z,38.69
2018-05-26T15:40:48.640Z,37.41
2018-05-26T15:41:48.701Z,36.43
2018-05-26T15:43:41.717Z,36.82
2018-05-26T15:44:41.784Z,37.41
2018-05-26T15:46:34.802Z,38.18
2018-05-26T15:47:34.867Z,37.79
2018-05-26T15:49:27.885Z,38.09
2018-05-26T15:50:27.964Z,37.70
2018-05-26T15:52:20.961Z,36.92
2018-05-26T15:53:21.075Z,37.39
2018-05-26T15:55:14.043Z,37.39
2018-05-26T15:56:14.112Z,38.17
2018-05-26T15:58:07.131Z,38.56
2018-05-26T15:59:07.184Z,39.04
2018-05-26T16:01:00.193Z,38.38
2018-05-26T16:02:00.270Z,38.46
2018-05-26T16:03:53.281Z,37.58
2018-05-26T16:04:53.346Z,37.29
2018-05-26T16:06:46.362Z,38.07
2018-05-26T16:07:46.428Z,39.34
2018-05-26T16:09:39.474Z,39.82
2018-05-26T16:10:39.572Z,38.56
2018-05-26T16:12:32.504Z,39.26
2018-05-26T16:13:32.574Z,38.77
2018-05-26T16:15:25.622Z,39.53
2018-05-26T16:16:25.696Z,38.95
2018-05-26T16:18:18.698Z,39.43
2018-05-26T16:19:18.778Z,39.82
2018-05-26T16:21:11.787Z,41.09
2018-05-26T16:22:11.853Z,41.19
2018-05-26T16:24:04.864Z,40.21
2018-05-26T16:25:04.927Z,40.60
2018-05-26T16:26:57.936Z,40.01
2018-05-26T16:27:58.006Z,40.21
2018-05-26T16:29:51.029Z,38.46
2018-05-26T16:30:51.084Z,38.65
2018-05-26T16:32:44.099Z,37.89
2018-05-26T16:33:44.170Z,38.65
2018-05-26T16:35:37.186Z,39.72
2018-05-26T16:36:37.247Z,38.56
2018-05-26T16:38:30.254Z,39.34
2018-05-26T16:39:30.326Z,38.95
2018-05-26T16:41:23.349Z,38.56
2018-05-26T16:42:23.408Z,38.28
2018-05-26T16:44:16.426Z,39.04
2018-05-26T16:45:16.493Z,39.53
2018-05-26T16:47:09.492Z,40.11
2018-05-26T16:48:09.567Z,40.50
2018-05-26T16:50:02.592Z,41.67
2018-05-26T16:51:02.668Z,42.45
2018-05-26T16:52:55.660Z,41.67
2018-05-26T16:53:55.764Z,41.38
2018-05-26T16:55:48.755Z,41.09
2018-05-26T16:56:48.821Z,40.89
2018-05-26T16:58:41.835Z,40.62
2018-05-26T16:59:41.897Z,39.92
2018-05-26T17:01:34.914Z,40.41
2018-05-26T17:02:34.978Z,40.50
2018-05-26T17:04:27.999Z,40.11
2018-05-26T17:05:28.061Z,40.31
2018-05-26T17:07:21.103Z,41.19
2018-05-26T17:08:21.152Z,41.77
2018-05-26T17:10:14.160Z,42.91
2018-05-26T17:11:14.222Z,41.67
2018-05-26T17:13:07.266Z,41.46
2018-05-26T17:14:07.315Z,42.82
2018-05-26T17:16:00.329Z,42.82
2018-05-26T17:17:00.396Z,43.30
2018-05-26T17:18:53.402Z,43.50
2018-05-26T17:19:53.470Z,43.11
2018-05-26T17:21:46.491Z,42.91
2018-05-26T17:22:46.552Z,42.63
2018-05-26T17:24:39.579Z,42.63
2018-05-26T17:25:39.640Z,43.40
2018-05-26T17:27:32.650Z,43.67
2018-05-26T17:28:32.719Z,43.38
2018-05-26T17:30:25.730Z,42.70
2018-05-26T17:31:25.799Z,43.48
2018-05-26T17:33:18.800Z,44.06
2018-05-26T17:34:18.869Z,44.26
2018-05-26T17:36:11.881Z,43.85
2018-05-26T17:37:11.946Z,44.45
2018-05-26T17:39:04.953Z,44.62
2018-05-26T17:40:05.020Z,45.04
2018-05-26T17:41:58.032Z,44.04
2018-05-26T17:42:58.097Z,45.11
2018-05-26T17:44:51.104Z,45.11
2018-05-26T17:45:51.167Z,44.33
2018-05-26T17:47:44.177Z,44.92
2018-05-26T17:48:44.248Z,45.11
2018-05-26T17:50:37.262Z,45.50
2018-05-26T17:51:37.325Z,45.98
2018-05-26T17:53:30.403Z,46.37
2018-05-26T17:54:30.401Z,46.37
2018-05-26T17:56:23.417Z,45.89
2018-05-26T17:57:23.478Z,46.35
2018-05-26T17:59:16.485Z,45.48
2018-05-26T18:00:16.554Z,45.57
2018-05-26T18:02:09.574Z,46.64
2018-05-26T18:03:09.687Z,46.06
2018-05-26T18:05:02.681Z,45.18
2018-05-26T18:06:02.719Z,45.67
2018-05-26T18:07:55.739Z,46.74
2018-05-26T18:08:55.802Z,47.23
2018-05-26T18:10:48.836Z,47.81
2018-05-26T18:11:48.890Z,49.37
2018-05-26T18:13:41.932Z,48.37
2018-05-26T18:14:41.974Z,49.34
2018-05-26T18:16:34.989Z,48.95
2018-05-26T18:17:35.056Z,49.44
2018-05-26T18:19:28.056Z,48.18
2018-05-26T18:20:28.143Z,49.15
2018-05-26T18:22:21.138Z,49.24
2018-05-26T18:23:21.200Z,49.41
2018-05-26T18:25:14.241Z,48.44
2018-05-26T18:26:14.280Z,49.22
2018-05-26T18:28:07.294Z,48.15
2018-05-26T18:29:07.368Z,48.54
2018-05-26T18:31:00.382Z,49.99
2018-05-26T18:32:00.446Z,49.12
2018-05-26T18:33:53.452Z,49.97
2018-05-26T18:34:53.523Z,50.36